SWR5MP EGLL-LSZH
Flight info
| Callsign | SWR5MP |
|---|---|
| Flight time | 1h 13m |
| Altitude | 29000 |
| Route | DET L6 DVR UL9 KONAN UL607 KOK M150 DIK N852 SUTAL DCT GTQ DCT BAMEV DCT BLM |
| Aircraft | A321/M-SDE2E3FGIJ1RWXY/LB1 |
Departure
| Time | 2026-05-05 13:09 |
|---|---|
| Airport | London Heathrow Airport (EGLL) |
Arrival
| Time | 2026-05-05 14:22 |
|---|---|
| Airport | Zürich Airport (LSZH) |
| Time | Latitude | Longitude | Altitude | Speed | Heading |
|---|---|---|---|---|---|
| 2026-05-05 13:08 | 51.40271 | -0.10178 | 6654 ft | 274 kts | 101° |
| 2026-05-05 13:09 | 51.39857 | -0.07178 | 7367 ft | 276 kts | 101° |
| 2026-05-05 13:09 | 51.39443 | -0.04185 | 8087 ft | 278 kts | 101° |
| 2026-05-05 13:09 | 51.39022 | -0.01142 | 8773 ft | 281 kts | 101° |
| 2026-05-05 13:09 | 51.38594 | 0.01940 | 9415 ft | 285 kts | 101° |
| 2026-05-05 13:10 | 51.38163 | 0.05043 | 10079 ft | 288 kts | 101° |
| 2026-05-05 13:10 | 51.37717 | 0.08243 | 10453 ft | 302 kts | 101° |
| 2026-05-05 13:10 | 51.37244 | 0.11625 | 10703 ft | 319 kts | 102° |
| 2026-05-05 13:10 | 51.36746 | 0.15189 | 10934 ft | 336 kts | 102° |
| 2026-05-05 13:11 | 51.36220 | 0.18923 | 11162 ft | 353 kts | 102° |
| 2026-05-05 13:11 | 51.35669 | 0.22832 | 11451 ft | 365 kts | 102° |
| 2026-05-05 13:11 | 51.35104 | 0.26831 | 11957 ft | 370 kts | 102° |
| 2026-05-05 13:11 | 51.34530 | 0.30877 | 12538 ft | 373 kts | 102° |
| 2026-05-05 13:12 | 51.33953 | 0.34938 | 13116 ft | 376 kts | 102° |
| 2026-05-05 13:12 | 51.33369 | 0.39032 | 13674 ft | 378 kts | 102° |
| 2026-05-05 13:12 | 51.32787 | 0.43099 | 14210 ft | 381 kts | 102° |
| 2026-05-05 13:12 | 51.32192 | 0.47249 | 14723 ft | 384 kts | 103° |
| 2026-05-05 13:13 | 51.31593 | 0.51419 | 15234 ft | 387 kts | 103° |
| 2026-05-05 13:13 | 51.30986 | 0.55627 | 15746 ft | 389 kts | 103° |
| 2026-05-05 13:13 | 51.30358 | 0.59854 | 16228 ft | 392 kts | 104° |
| 2026-05-05 13:13 | 51.29613 | 0.64056 | 16712 ft | 395 kts | 106° |
| 2026-05-05 13:14 | 51.28840 | 0.68293 | 17191 ft | 397 kts | 107° |
| 2026-05-05 13:14 | 51.28066 | 0.72493 | 17637 ft | 399 kts | 107° |
| 2026-05-05 13:14 | 51.27278 | 0.76773 | 18097 ft | 402 kts | 107° |
| 2026-05-05 13:14 | 51.26490 | 0.81059 | 18536 ft | 404 kts | 107° |
| 2026-05-05 13:15 | 51.25689 | 0.85404 | 18958 ft | 406 kts | 107° |
| 2026-05-05 13:15 | 51.24894 | 0.89707 | 19364 ft | 409 kts | 107° |
| 2026-05-05 13:15 | 51.24088 | 0.94068 | 19771 ft | 412 kts | 107° |
| 2026-05-05 13:15 | 51.23273 | 0.98480 | 20170 ft | 414 kts | 107° |
| 2026-05-05 13:16 | 51.22448 | 1.02922 | 20561 ft | 417 kts | 107° |
| 2026-05-05 13:16 | 51.21618 | 1.07358 | 20944 ft | 419 kts | 107° |
| 2026-05-05 13:16 | 51.20786 | 1.11786 | 21308 ft | 422 kts | 108° |
| 2026-05-05 13:16 | 51.19945 | 1.16284 | 21674 ft | 424 kts | 108° |
| 2026-05-05 13:17 | 51.19100 | 1.20806 | 22030 ft | 426 kts | 108° |
| 2026-05-05 13:17 | 51.18249 | 1.25338 | 22362 ft | 429 kts | 108° |
| 2026-05-05 13:17 | 51.17390 | 1.29905 | 22698 ft | 431 kts | 108° |
| 2026-05-05 13:17 | 51.16542 | 1.34522 | 23037 ft | 433 kts | 105° |
| 2026-05-05 13:18 | 51.16063 | 1.39227 | 23335 ft | 437 kts | 96° |
| 2026-05-05 13:18 | 51.15824 | 1.44063 | 23646 ft | 439 kts | 95° |
| 2026-05-05 13:18 | 51.15612 | 1.48952 | 23940 ft | 442 kts | 95° |
| 2026-05-05 13:18 | 51.15392 | 1.53867 | 24232 ft | 444 kts | 95° |
| 2026-05-05 13:19 | 51.15163 | 1.58721 | 24521 ft | 446 kts | 96° |
| 2026-05-05 13:19 | 51.14921 | 1.63658 | 24813 ft | 447 kts | 96° |
| 2026-05-05 13:19 | 51.14675 | 1.68618 | 25105 ft | 449 kts | 96° |
| 2026-05-05 13:19 | 51.14426 | 1.73601 | 25390 ft | 450 kts | 96° |
| 2026-05-05 13:20 | 51.14178 | 1.78573 | 25747 ft | 449 kts | 96° |
| 2026-05-05 13:20 | 51.13926 | 1.83553 | 26134 ft | 448 kts | 96° |
| 2026-05-05 13:20 | 51.13675 | 1.88431 | 26508 ft | 447 kts | 97° |
| 2026-05-05 13:20 | 51.13418 | 1.93368 | 26878 ft | 446 kts | 97° |
| 2026-05-05 13:21 | 51.13161 | 1.98303 | 27251 ft | 444 kts | 97° |
| 2026-05-05 13:21 | 51.12908 | 2.03124 | 27596 ft | 443 kts | 97° |
| 2026-05-05 13:21 | 51.12649 | 2.08016 | 27924 ft | 443 kts | 97° |
| 2026-05-05 13:21 | 51.12382 | 2.12918 | 28282 ft | 442 kts | 98° |
| 2026-05-05 13:22 | 51.12117 | 2.17788 | 28604 ft | 441 kts | 98° |
| 2026-05-05 13:22 | 51.11849 | 2.22651 | 28892 ft | 441 kts | 98° |
| 2026-05-05 13:22 | 51.11320 | 2.32321 | 28958 ft | 441 kts | 98° |
| 2026-05-05 13:23 | 51.10788 | 2.42043 | 28936 ft | 441 kts | 98° |
| 2026-05-05 13:23 | 51.10233 | 2.51781 | 28932 ft | 441 kts | 98° |
| 2026-05-05 13:24 | 51.09646 | 2.61515 | 28929 ft | 440 kts | 101° |
| 2026-05-05 13:24 | 51.08963 | 2.66235 | 28926 ft | 435 kts | 112° |
| 2026-05-05 13:24 | 51.07752 | 2.70563 | 28931 ft | 432 kts | 120° |
| 2026-05-05 13:25 | 51.04904 | 2.78997 | 28930 ft | 432 kts | 121° |
| 2026-05-05 13:25 | 51.02077 | 2.87395 | 28929 ft | 432 kts | 121° |
| 2026-05-05 13:26 | 50.99256 | 2.95826 | 28930 ft | 432 kts | 121° |
| 2026-05-05 13:26 | 50.96447 | 3.04205 | 28923 ft | 431 kts | 121° |
| 2026-05-05 13:27 | 50.93619 | 3.12606 | 28916 ft | 432 kts | 121° |
| 2026-05-05 13:27 | 50.90775 | 3.21027 | 28910 ft | 432 kts | 121° |
| 2026-05-05 13:28 | 50.87952 | 3.29350 | 28905 ft | 431 kts | 121° |
| 2026-05-05 13:28 | 50.85112 | 3.37704 | 28901 ft | 431 kts | 121° |
| 2026-05-05 13:29 | 50.82259 | 3.46066 | 28893 ft | 430 kts | 121° |
| 2026-05-05 13:29 | 50.79411 | 3.54389 | 28890 ft | 429 kts | 121° |
| 2026-05-05 13:30 | 50.76557 | 3.62705 | 28890 ft | 429 kts | 121° |
| 2026-05-05 13:30 | 50.73712 | 3.70957 | 28891 ft | 430 kts | 121° |
| 2026-05-05 13:31 | 50.70853 | 3.79231 | 28890 ft | 428 kts | 122° |
| 2026-05-05 13:31 | 50.68014 | 3.87423 | 28890 ft | 428 kts | 122° |
| 2026-05-05 13:32 | 50.65136 | 3.95689 | 28891 ft | 428 kts | 122° |
| 2026-05-05 13:32 | 50.62266 | 4.03894 | 28891 ft | 427 kts | 122° |
| 2026-05-05 13:33 | 50.59405 | 4.12069 | 28887 ft | 428 kts | 122° |
| 2026-05-05 13:33 | 50.56537 | 4.20228 | 28880 ft | 427 kts | 122° |
| 2026-05-05 13:34 | 50.53667 | 4.28382 | 28879 ft | 426 kts | 122° |
| 2026-05-05 13:34 | 50.50782 | 4.36548 | 28881 ft | 427 kts | 122° |
| 2026-05-05 13:35 | 50.47892 | 4.44709 | 28880 ft | 427 kts | 122° |
| 2026-05-05 13:35 | 50.45011 | 4.52808 | 28881 ft | 426 kts | 122° |
| 2026-05-05 13:36 | 50.42103 | 4.60958 | 28880 ft | 428 kts | 122° |
| 2026-05-05 13:36 | 50.39182 | 4.69115 | 28875 ft | 427 kts | 122° |
| 2026-05-05 13:37 | 50.36275 | 4.77197 | 28869 ft | 429 kts | 123° |
| 2026-05-05 13:37 | 50.33338 | 4.85354 | 28873 ft | 428 kts | 123° |
| 2026-05-05 13:38 | 50.30419 | 4.93432 | 28873 ft | 429 kts | 123° |
| 2026-05-05 13:38 | 50.27462 | 5.01584 | 28868 ft | 429 kts | 123° |
| 2026-05-05 13:39 | 50.24524 | 5.09645 | 28872 ft | 429 kts | 123° |
| 2026-05-05 13:39 | 50.21573 | 5.17727 | 28870 ft | 429 kts | 123° |
| 2026-05-05 13:40 | 50.19104 | 5.24480 | 28868 ft | 430 kts | 123° |
| 2026-05-05 13:40 | 50.16129 | 5.32593 | 28871 ft | 429 kts | 123° |
| 2026-05-05 13:41 | 50.13146 | 5.40690 | 28872 ft | 428 kts | 123° |
| 2026-05-05 13:41 | 50.10181 | 5.48716 | 28864 ft | 429 kts | 124° |
| 2026-05-05 13:42 | 50.07193 | 5.56778 | 28867 ft | 428 kts | 124° |
| 2026-05-05 13:42 | 50.04234 | 5.64731 | 28870 ft | 428 kts | 124° |
| 2026-05-05 13:43 | 50.01246 | 5.72758 | 28868 ft | 427 kts | 124° |
| 2026-05-05 13:43 | 49.98273 | 5.80710 | 28871 ft | 425 kts | 124° |
| 2026-05-05 13:44 | 49.95291 | 5.88662 | 28852 ft | 425 kts | 124° |
| 2026-05-05 13:44 | 49.92327 | 5.96552 | 28849 ft | 424 kts | 124° |
| 2026-05-05 13:45 | 49.89334 | 6.04485 | 28850 ft | 425 kts | 124° |
| 2026-05-05 13:45 | 49.85883 | 6.11859 | 28840 ft | 418 kts | 140° |
| 2026-05-05 13:46 | 49.83625 | 6.14566 | 28840 ft | 413 kts | 151° |
| 2026-05-05 13:46 | 49.81059 | 6.16574 | 28847 ft | 410 kts | 158° |
| 2026-05-05 13:46 | 49.75826 | 6.20025 | 28843 ft | 411 kts | 159° |
| 2026-05-05 13:47 | 49.70567 | 6.23539 | 28843 ft | 411 kts | 158° |
| 2026-05-05 13:47 | 49.65324 | 6.27076 | 28851 ft | 410 kts | 158° |
| 2026-05-05 13:48 | 49.60103 | 6.30533 | 28848 ft | 410 kts | 159° |
| 2026-05-05 13:48 | 49.54818 | 6.33918 | 28847 ft | 411 kts | 159° |
| 2026-05-05 13:49 | 49.49567 | 6.37294 | 28842 ft | 410 kts | 159° |
| 2026-05-05 13:49 | 49.44314 | 6.40759 | 28844 ft | 410 kts | 158° |
| 2026-05-05 13:50 | 49.39110 | 6.44306 | 28838 ft | 411 kts | 158° |
| 2026-05-05 13:50 | 49.33866 | 6.47877 | 28839 ft | 411 kts | 158° |
| 2026-05-05 13:51 | 49.28619 | 6.51436 | 28836 ft | 410 kts | 158° |
| 2026-05-05 13:51 | 49.23425 | 6.54950 | 28839 ft | 411 kts | 158° |
| 2026-05-05 13:52 | 49.18189 | 6.58487 | 28848 ft | 410 kts | 158° |
| 2026-05-05 13:52 | 49.12988 | 6.61991 | 28851 ft | 410 kts | 158° |
| 2026-05-05 13:53 | 49.07764 | 6.65505 | 28850 ft | 411 kts | 158° |
| 2026-05-05 13:53 | 49.02520 | 6.69019 | 28849 ft | 411 kts | 158° |
| 2026-05-05 13:54 | 48.99905 | 6.70769 | 28849 ft | 410 kts | 158° |
| 2026-05-05 13:54 | 48.91654 | 6.75777 | 28843 ft | 407 kts | 160° |
| 2026-05-05 13:55 | 48.86387 | 6.78894 | 28841 ft | 408 kts | 160° |
| 2026-05-05 13:55 | 48.81080 | 6.82032 | 28837 ft | 408 kts | 160° |
| 2026-05-05 13:56 | 48.75823 | 6.85137 | 28837 ft | 408 kts | 160° |
| 2026-05-05 13:56 | 48.70511 | 6.88262 | 28839 ft | 408 kts | 160° |
| 2026-05-05 13:57 | 48.65218 | 6.91375 | 28832 ft | 407 kts | 160° |
| 2026-05-05 13:57 | 48.59953 | 6.94461 | 28824 ft | 408 kts | 160° |
| 2026-05-05 13:58 | 48.54656 | 6.97559 | 28819 ft | 408 kts | 160° |
| 2026-05-05 13:58 | 48.49343 | 7.00660 | 28825 ft | 408 kts | 160° |
| 2026-05-05 13:59 | 48.41420 | 7.05270 | 28831 ft | 408 kts | 160° |
| 2026-05-05 14:00 | 48.34338 | 7.09380 | 28827 ft | 407 kts | 160° |
| 2026-05-05 14:00 | 48.28182 | 7.12941 | 28827 ft | 407 kts | 160° |
| 2026-05-05 14:01 | 48.22876 | 7.16003 | 28830 ft | 408 kts | 160° |
| 2026-05-05 14:01 | 48.17606 | 7.19039 | 28823 ft | 407 kts | 160° |
| 2026-05-05 14:02 | 48.12307 | 7.22083 | 28818 ft | 406 kts | 160° |
| 2026-05-05 14:02 | 48.07017 | 7.25116 | 28220 ft | 407 kts | 160° |
| 2026-05-05 14:03 | 48.04419 | 7.26604 | 27633 ft | 403 kts | 160° |
| 2026-05-05 14:03 | 48.01791 | 7.28108 | 27051 ft | 400 kts | 160° |
| 2026-05-05 14:03 | 47.99202 | 7.29587 | 26496 ft | 396 kts | 160° |
| 2026-05-05 14:03 | 47.96646 | 7.31046 | 25964 ft | 392 kts | 161° |
| 2026-05-05 14:04 | 47.94095 | 7.32499 | 25455 ft | 388 kts | 161° |
| 2026-05-05 14:04 | 47.91615 | 7.33912 | 24977 ft | 383 kts | 161° |
| 2026-05-05 14:04 | 47.89130 | 7.35324 | 24495 ft | 379 kts | 161° |
| 2026-05-05 14:04 | 47.86669 | 7.36721 | 23988 ft | 375 kts | 161° |
| 2026-05-05 14:05 | 47.84239 | 7.38100 | 23500 ft | 371 kts | 161° |
| 2026-05-05 14:05 | 47.81867 | 7.39445 | 23032 ft | 367 kts | 161° |
| 2026-05-05 14:05 | 47.79492 | 7.40792 | 22564 ft | 363 kts | 161° |
| 2026-05-05 14:05 | 47.77142 | 7.42123 | 22095 ft | 359 kts | 161° |
| 2026-05-05 14:06 | 47.74821 | 7.43437 | 21625 ft | 355 kts | 161° |
| 2026-05-05 14:06 | 47.72539 | 7.44725 | 21148 ft | 353 kts | 161° |
| 2026-05-05 14:06 | 47.70244 | 7.46021 | 20699 ft | 351 kts | 161° |
| 2026-05-05 14:06 | 47.67962 | 7.47309 | 20259 ft | 349 kts | 161° |
| 2026-05-05 14:07 | 47.65707 | 7.48666 | 19822 ft | 348 kts | 155° |
| 2026-05-05 14:07 | 47.63752 | 7.50703 | 19372 ft | 351 kts | 138° |
| 2026-05-05 14:07 | 47.62716 | 7.52621 | 19109 ft | 355 kts | 124° |
| 2026-05-05 14:07 | 47.61458 | 7.57119 | 18626 ft | 358 kts | 111° |
| 2026-05-05 14:08 | 47.60690 | 7.60637 | 18192 ft | 357 kts | 111° |
| 2026-05-05 14:08 | 47.60180 | 7.62954 | 17888 ft | 356 kts | 111° |
| 2026-05-05 14:08 | 47.59396 | 7.66431 | 17429 ft | 355 kts | 112° |
| 2026-05-05 14:08 | 47.58600 | 7.69887 | 16949 ft | 355 kts | 112° |
| 2026-05-05 14:09 | 47.57793 | 7.73347 | 16485 ft | 355 kts | 112° |
| 2026-05-05 14:09 | 47.56979 | 7.76809 | 16037 ft | 354 kts | 112° |
| 2026-05-05 14:09 | 47.56165 | 7.80265 | 15587 ft | 353 kts | 112° |
| 2026-05-05 14:09 | 47.55363 | 7.83667 | 15135 ft | 352 kts | 112° |
| 2026-05-05 14:10 | 47.54552 | 7.87099 | 14690 ft | 351 kts | 113° |
| 2026-05-05 14:10 | 47.53746 | 7.90501 | 14229 ft | 351 kts | 112° |
| 2026-05-05 14:10 | 47.52935 | 7.93929 | 13760 ft | 350 kts | 112° |
| 2026-05-05 14:10 | 47.52142 | 7.97275 | 13313 ft | 350 kts | 113° |
| 2026-05-05 14:11 | 47.51335 | 8.00665 | 12852 ft | 348 kts | 113° |
| 2026-05-05 14:11 | 47.50535 | 8.04027 | 12424 ft | 343 kts | 113° |
| 2026-05-05 14:11 | 47.49810 | 8.07088 | 12013 ft | 339 kts | 113° |
| 2026-05-05 14:11 | 47.49028 | 8.10372 | 11549 ft | 336 kts | 113° |
| 2026-05-05 14:12 | 47.48262 | 8.13586 | 11072 ft | 334 kts | 112° |
| 2026-05-05 14:12 | 47.47502 | 8.16825 | 10628 ft | 332 kts | 109° |
| 2026-05-05 14:12 | 47.47217 | 8.20174 | 10375 ft | 327 kts | 86° |
| 2026-05-05 14:12 | 47.47880 | 8.23315 | 10186 ft | 319 kts | 60° |
| 2026-05-05 14:13 | 47.49367 | 8.25663 | 10018 ft | 309 kts | 33° |
| 2026-05-05 14:13 | 47.51340 | 8.26691 | 9846 ft | 296 kts | 3° |
| 2026-05-05 14:13 | 47.53339 | 8.26259 | 9491 ft | 290 kts | 337° |
| 2026-05-05 14:13 | 47.55033 | 8.24770 | 9075 ft | 286 kts | 317° |
| 2026-05-05 14:14 | 47.56440 | 8.22709 | 8699 ft | 283 kts | 312° |
| 2026-05-05 14:14 | 47.57801 | 8.20611 | 8315 ft | 281 kts | 313° |
| 2026-05-05 14:14 | 47.59214 | 8.18611 | 7979 ft | 279 kts | 321° |
| 2026-05-05 14:14 | 47.60940 | 8.17337 | 7566 ft | 279 kts | 346° |
| 2026-05-05 14:15 | 47.62864 | 8.17333 | 7149 ft | 279 kts | 13° |
| 2026-05-05 14:15 | 47.64581 | 8.18545 | 6753 ft | 278 kts | 38° |
| 2026-05-05 14:15 | 47.65952 | 8.20560 | 6422 ft | 275 kts | 48° |
| 2026-05-05 14:15 | 47.67103 | 8.22764 | 6226 ft | 267 kts | 62° |
| 2026-05-05 14:16 | 47.67546 | 8.25362 | 6046 ft | 255 kts | 93° |
| 2026-05-05 14:16 | 47.67068 | 8.27812 | 5935 ft | 247 kts | 123° |
| 2026-05-05 14:16 | 47.65948 | 8.29681 | 5945 ft | 246 kts | 139° |
| 2026-05-05 14:16 | 47.64661 | 8.31336 | 5908 ft | 242 kts | 141° |
| 2026-05-05 14:17 | 47.63391 | 8.32922 | 5574 ft | 236 kts | 141° |
| 2026-05-05 14:17 | 47.62164 | 8.34495 | 5220 ft | 230 kts | 139° |
| 2026-05-05 14:17 | 47.61006 | 8.36067 | 4939 ft | 218 kts | 138° |
| 2026-05-05 14:17 | 47.59918 | 8.37557 | 4642 ft | 208 kts | 138° |
| 2026-05-05 14:18 | 47.58870 | 8.38996 | 4321 ft | 204 kts | 138° |
| 2026-05-05 14:18 | 47.57846 | 8.40402 | 4019 ft | 197 kts | 138° |
| 2026-05-05 14:18 | 47.56861 | 8.41755 | 3735 ft | 194 kts | 139° |
| 2026-05-05 14:18 | 47.55866 | 8.43121 | 3476 ft | 193 kts | 138° |
| 2026-05-05 14:19 | 47.54903 | 8.44441 | 3219 ft | 182 kts | 138° |
| 2026-05-05 14:19 | 47.54010 | 8.45665 | 2986 ft | 167 kts | 138° |
| 2026-05-05 14:19 | 47.53202 | 8.46775 | 2738 ft | 154 kts | 136° |
| 2026-05-05 14:19 | 47.52422 | 8.47846 | 2549 ft | 153 kts | 136° |
| 2026-05-05 14:20 | 47.51641 | 8.48920 | 2361 ft | 153 kts | 136° |
| 2026-05-05 14:20 | 47.50859 | 8.49982 | 2130 ft | 152 kts | 137° |
| 2026-05-05 14:20 | 47.50086 | 8.51053 | 1952 ft | 152 kts | 136° |
| 2026-05-05 14:20 | 47.49307 | 8.52111 | 1752 ft | 151 kts | 137° |
| 2026-05-05 14:21 | 47.48545 | 8.53147 | 1528 ft | 150 kts | 137° |
| 2026-05-05 14:21 | 47.47790 | 8.54178 | 1409 ft | 137 kts | 137° |
| 2026-05-05 14:21 | 47.47182 | 8.55012 | 1411 ft | 93 kts | 137° |
| 2026-05-05 14:21 | 47.46817 | 8.55509 | 1410 ft | 57 kts | 137° |
| 2026-05-05 14:22 | 47.46567 | 8.55845 | 1413 ft | 37 kts | 142° |
| 2026-05-05 14:22 | 47.46392 | 8.55952 | 1411 ft | 27 kts | 169° |
| 2026-05-05 14:22 | 47.46212 | 8.56003 | 1406 ft | 27 kts | 175° |
| 2026-05-05 14:22 | 47.46083 | 8.55990 | 1407 ft | 17 kts | 186° |
| 2026-05-05 14:23 | 47.45959 | 8.55965 | 1408 ft | 19 kts | 194° |
| 2026-05-05 14:23 | 47.45863 | 8.55914 | 1403 ft | 13 kts | 199° |
| 2026-05-05 14:23 | 47.45843 | 8.55903 | 1403 ft | 0 kts | 199° |
| 2026-05-05 14:24 | 47.45836 | 8.55900 | 1403 ft | 5 kts | 199° |
| 2026-05-05 14:25 | 47.45772 | 8.55878 | 1406 ft | 14 kts | 186° |
| 2026-05-05 14:25 | 47.45665 | 8.55861 | 1404 ft | 17 kts | 186° |
| 2026-05-05 14:25 | 47.45545 | 8.55843 | 1402 ft | 16 kts | 186° |
| 2026-05-05 14:25 | 47.45503 | 8.55773 | 1411 ft | 10 kts | 279° |
| 2026-05-05 14:26 | 47.45485 | 8.55703 | 1408 ft | 0 kts | 178° |
| 2026-05-05 14:26 | 47.45477 | 8.55701 | 1402 ft | 3 kts | 188° |
| 2026-05-05 14:26 | 47.45444 | 8.55694 | 1409 ft | 3 kts | 187° |
| 2026-05-05 14:26 | 47.45440 | 8.55694 | 1402 ft | 2 kts | 186° |
| 2026-05-05 14:27 | 47.45430 | 8.55692 | 1402 ft | 0 kts | 187° |
| 2026-05-05 14:27 | 47.45429 | 8.55692 | 1402 ft | 0 kts | 186° |